Time;durP1;ratioP1;P1;durP2;ratioP2;P2;SDS_P1;SDS_P2;PMS_P1;PMS_P2;Temp;Humidity;BMP_temperature;BMP_pressure;BME280_temperature;BME280_humidity;BME280_pressure;Samples;Min_cycle;Max_cycle;Signal;HPM_P1;HPM_P2
2021/12/23 00:00:40;;;;;;;;;10.00;9.50;;;;;-6.28;59.06;102126.59;5023678;28;8838;-78
2021/12/23 00:03:35;;;;;;;;;6.75;6.75;;;;;-6.34;59.24;102130.00;5035514;28;8842;-78
2021/12/23 00:06:31;;;;;;;;;11.00;11.00;;;;;-6.26;58.84;102129.09;5009561;28;8856;-78
2021/12/23 00:09:48;;;;;;;;;7.00;7.00;;;;;-6.11;58.58;102129.94;5016459;28;8883;-78
2021/12/23 00:12:44;;;;;;;;;7.00;7.00;;;;;-6.27;58.63;102127.41;5017005;28;8832;-79
2021/12/23 00:16:02;;;;;;;;;10.00;10.00;;;;;-6.27;59.17;102130.13;5026704;28;9591;-78
2021/12/23 00:19:02;;;;;;;;;7.50;7.00;;;;;-6.15;59.08;102134.00;5034372;28;8852;-79
2021/12/23 00:25:12;;;;;;;;;7.50;7.50;;;;;-6.25;59.41;102134.28;5039053;28;8862;-79
2021/12/23 00:28:07;;;;;;;;;7.25;7.25;;;;;-6.17;60.09;102133.34;5039886;28;8846;-78
2021/12/23 00:31:03;;;;;;;;;4.00;3.50;;;;;-6.08;59.43;102132.22;5042964;28;8823;-78
2021/12/23 00:33:59;;;;;;;;;7.00;7.00;;;;;-6.07;59.98;102131.22;5056385;28;8959;-78
2021/12/23 00:36:57;;;;;;;;;8.75;8.75;;;;;-6.17;60.23;102138.75;5055556;28;8916;-79
2021/12/23 00:39:52;;;;;;;;;0.00;0.00;;;;;-6.10;60.66;102131.59;5003287;28;8945;-78
2021/12/23 00:42:48;;;;;;;;;9.75;9.75;;;;;-5.91;60.75;102127.50;5016400;28;8840;-78
2021/12/23 00:45:43;;;;;;;;;5.00;5.00;;;;;-6.08;61.32;102134.94;5016379;28;9667;-79
2021/12/23 00:48:39;;;;;;;;;9.25;7.25;;;;;-5.96;60.80;102117.28;5025986;28;8842;-78
2021/12/23 00:51:35;;;;;;;;;7.00;7.00;;;;;-5.83;61.27;102113.88;5034603;28;8857;-78
2021/12/23 00:54:31;;;;;;;;;7.00;6.25;;;;;-5.98;61.43;102116.66;5034204;28;8838;-79
2021/12/23 00:57:29;;;;;;;;;9.00;9.00;;;;;-5.97;61.85;102123.72;5035950;28;8850;-79
2021/12/23 01:00:25;;;;;;;;;7.00;7.00;;;;;-5.97;61.93;102121.00;5017804;28;8836;-78
2021/12/23 01:03:20;;;;;;;;;9.00;9.00;;;;;-5.95;61.86;102120.81;5032901;28;8854;-79
2021/12/23 01:06:16;;;;;;;;;9.75;9.75;;;;;-6.05;61.76;102121.09;5035766;28;8830;-78
2021/12/23 01:09:11;;;;;;;;;13.75;13.25;;;;;-6.08;62.02;102109.84;5021978;28;8850;-78
2021/12/23 01:12:10;;;;;;;;;12.75;12.75;;;;;-5.91;61.46;102122.94;5034189;28;8844;-78
2021/12/23 01:15:58;;;;;;;;;10.50;10.50;;;;;-5.99;61.02;102114.13;5035630;28;8846;-78
2021/12/23 01:18:30;;;;;;;;;6.50;6.50;;;;;-5.92;60.99;102121.25;5033460;28;8845;-78
2021/12/23 01:21:25;;;;;;;;;8.75;8.75;;;;;-5.88;61.31;102127.94;5034032;28;9602;-78
2021/12/23 01:24:23;;;;;;;;;6.25;6.25;;;;;-5.89;60.49;102128.97;5033749;28;8940;-78
2021/12/23 01:26:50;;;;;;;;;8.00;8.00;;;;;-5.89;61.16;102128.97;5034582;28;8935;-78
2021/12/23 01:29:46;;;;;;;;;7.50;7.50;;;;;-5.93;60.91;102132.22;5043477;28;8842;-78
2021/12/23 01:32:42;;;;;;;;;11.00;11.00;;;;;-5.83;60.76;102126.53;5033709;28;8842;-78
2021/12/23 01:35:38;;;;;;;;;9.50;9.50;;;;;-5.73;60.78;102124.38;5002362;28;8848;-78
2021/12/23 01:38:34;;;;;;;;;12.00;10.50;;;;;-5.75;60.82;102129.09;5019142;28;8943;-78
2021/12/23 01:41:29;;;;;;;;;12.50;12.50;;;;;-5.76;60.82;102127.44;5033626;28;8842;-79
2021/12/23 01:44:25;;;;;;;;;12.75;12.75;;;;;-5.79;61.31;102117.06;5021777;28;8838;-78
2021/12/23 01:47:21;;;;;;;;;9.75;9.75;;;;;-5.79;60.43;102125.13;5032734;28;8853;-79
2021/12/23 01:50:20;;;;;;;;;17.00;17.00;;;;;-5.80;61.14;102126.16;5016493;28;8850;-79
2021/12/23 01:53:15;;;;;;;;;11.00;11.00;;;;;-5.91;61.12;102127.50;5033140;28;8972;-79
2021/12/23 01:56:11;;;;;;;;;7.00;7.00;;;;;-5.91;61.59;102122.94;5034761;28;8864;-79
2021/12/23 01:59:07;;;;;;;;;8.00;8.00;;;;;-5.92;61.81;102132.03;5034500;28;8853;-79
2021/12/23 02:02:03;;;;;;;;;6.75;6.75;;;;;-5.82;61.34;102123.66;5034445;28;8834;-79
2021/12/23 02:04:59;;;;;;;;;10.50;10.50;;;;;-5.78;60.89;102124.09;5033517;28;8865;-79
2021/12/23 02:07:54;;;;;;;;;7.00;7.00;;;;;-5.76;61.11;102125.59;5033276;28;8926;-78
2021/12/23 02:10:53;;;;;;;;;6.00;6.00;;;;;-5.79;60.50;102125.97;5032155;28;8915;-79
2021/12/23 02:13:49;;;;;;;;;5.75;5.75;;;;;-5.84;60.71;102116.78;5021335;28;8842;-78
2021/12/23 02:16:45;;;;;;;;;9.00;9.00;;;;;-5.82;61.21;102114.75;5009734;28;8848;-77
2021/12/23 02:19:40;;;;;;;;;11.50;4.00;;;;;-5.66;61.10;102122.63;5025810;28;8860;-79
2021/12/23 02:22:37;;;;;;;;;6.75;6.75;;;;;-5.74;60.40;102123.56;5021212;28;8947;-77
2021/12/23 02:25:32;;;;;;;;;9.25;9.25;;;;;-5.71;60.95;102115.09;5031635;28;8826;-77
2021/12/23 02:28:28;;;;;;;;;9.50;9.00;;;;;-5.77;60.81;102113.13;5032766;28;8838;-77
2021/12/23 02:31:24;;;;;;;;;9.00;9.00;;;;;-5.65;61.44;102117.03;5032411;28;8837;-77
2021/12/23 02:34:21;;;;;;;;;6.75;6.75;;;;;-5.72;61.34;102118.81;5019553;28;8911;-77
2021/12/23 02:37:17;;;;;;;;;6.75;6.75;;;;;-5.80;62.61;102118.91;5032512;28;8858;-77
2021/12/23 02:40:24;;;;;;;;;9.25;9.25;;;;;-5.70;62.29;102115.91;5033472;28;8830;-77
2021/12/23 02:43:26;;;;;;;;;6.50;6.50;;;;;-5.59;61.43;102123.53;5034155;28;8838;-77
2021/12/23 02:46:21;;;;;;;;;9.75;9.75;;;;;-5.76;61.22;102119.34;5032466;28;8857;-77
2021/12/23 02:49:18;;;;;;;;;8.50;8.50;;;;;-5.63;61.48;102116.84;5032329;28;8858;-77
2021/12/23 02:52:15;;;;;;;;;8.00;8.00;;;;;-5.58;61.35;102113.59;5044009;28;8842;-77
2021/12/23 02:55:11;;;;;;;;;7.00;7.00;;;;;-5.63;61.00;102114.97;5032312;28;9710;-77
2021/12/23 02:58:07;;;;;;;;;12.00;12.00;;;;;-5.57;61.36;102124.16;5032007;28;8874;-77
2021/12/23 03:01:08;;;;;;;;;14.00;14.00;;;;;-5.55;61.39;102126.66;5028341;28;8834;-77
2021/12/23 03:04:04;;;;;;;;;9.25;9.25;;;;;-5.79;62.51;102125.97;5032543;28;8921;-77
2021/12/23 03:07:00;;;;;;;;;9.75;3.75;;;;;-5.69;61.87;102125.66;5032214;28;8850;-77
2021/12/23 03:09:56;;;;;;;;;12.00;12.00;;;;;-5.59;60.78;102131.63;5031587;28;8900;-77
2021/12/23 03:12:51;;;;;;;;;6.25;6.25;;;;;-5.63;60.57;102136.53;5019045;28;8873;-77
2021/12/23 03:15:47;;;;;;;;;10.00;10.00;;;;;-5.60;60.36;102138.88;5020509;28;8862;-77
2021/12/23 03:18:43;;;;;;;;;7.00;7.00;;;;;-5.56;60.50;102139.31;5027812;28;9530;-77
2021/12/23 03:21:38;;;;;;;;;8.00;8.00;;;;;-5.58;59.89;102141.38;5032802;28;8887;-78
2021/12/23 03:24:34;;;;;;;;;7.00;7.00;;;;;-5.55;59.89;102151.78;5031825;28;9629;-78
2021/12/23 03:27:30;;;;;;;;;14.25;13.75;;;;;-5.50;59.95;102148.53;5033727;28;8846;-77
2021/12/23 03:30:26;;;;;;;;;9.00;9.00;;;;;-5.63;59.94;102158.09;5031807;28;8849;-77
2021/12/23 03:33:21;;;;;;;;;9.75;9.75;;;;;-5.64;59.87;102152.91;5032008;28;8834;-76
2021/12/23 03:36:17;;;;;;;;;9.50;9.50;;;;;-5.57;59.90;102159.22;5032036;28;8843;-78
2021/12/23 03:39:13;;;;;;;;;10.00;9.00;;;;;-5.50;59.09;102162.00;5031863;28;9603;-79
2021/12/23 03:42:09;;;;;;;;;13.00;13.00;;;;;-5.59;59.68;102166.66;5032930;28;8826;-78
2021/12/23 03:45:07;;;;;;;;;8.50;8.50;;;;;-5.49;59.15;102163.66;5033111;28;8939;-77
2021/12/23 03:48:05;;;;;;;;;9.00;8.75;;;;;-5.60;58.97;102164.97;5031776;28;8830;-78
2021/12/23 03:51:00;;;;;;;;;13.00;11.25;;;;;-5.56;58.56;102162.75;5032438;28;8850;-77
2021/12/23 03:53:56;;;;;;;;;0.00;0.00;;;;;-5.55;57.91;102169.81;5022982;28;8846;-77
2021/12/23 03:56:52;;;;;;;;;7.25;7.25;;;;;-5.48;58.11;102166.16;5021656;28;8873;-77
2021/12/23 03:59:48;;;;;;;;;9.00;9.00;;;;;-5.37;57.60;102178.31;5021749;28;8944;-77
2021/12/23 04:02:44;;;;;;;;;10.00;7.00;;;;;-5.62;57.00;102183.19;5034880;28;8952;-77
2021/12/23 04:05:40;;;;;;;;;8.50;8.00;;;;;-5.75;57.92;102174.94;5034632;28;9578;-77
2021/12/23 04:08:36;;;;;;;;;7.75;7.00;;;;;-5.58;57.89;102180.97;5046389;28;8868;-77
2021/12/23 04:11:32;;;;;;;;;10.00;10.00;;;;;-5.64;58.22;102177.16;5034583;28;8855;-77
2021/12/23 04:14:27;;;;;;;;;9.75;9.00;;;;;-5.69;58.55;102185.81;5036961;28;8857;-77
2021/12/23 04:17:23;;;;;;;;;3.75;3.75;;;;;-5.60;58.23;102186.53;5036646;28;8826;-77
2021/12/23 04:20:22;;;;;;;;;4.00;4.00;;;;;-5.63;57.50;102193.16;5035031;28;8869;-78
2021/12/23 04:23:18;;;;;;;;;6.50;6.50;;;;;-5.60;57.77;102182.00;5015996;28;8832;-77
2021/12/23 04:26:14;;;;;;;;;8.50;8.50;;;;;-5.69;57.82;102184.97;5015015;28;8871;-78
2021/12/23 04:29:09;;;;;;;;;4.50;4.50;;;;;-5.68;58.50;102182.06;5016582;28;8929;-78
2021/12/23 04:32:05;;;;;;;;;9.75;9.50;;;;;-5.56;58.25;102185.16;5030021;28;8876;-78
2021/12/23 04:35:01;;;;;;;;;7.00;7.00;;;;;-5.63;58.50;102179.66;5023358;28;8826;-78
2021/12/23 04:37:57;;;;;;;;;5.00;5.00;;;;;-5.57;58.75;102185.34;5036370;28;8881;-77
2021/12/23 04:40:53;;;;;;;;;8.50;8.50;;;;;-5.69;58.76;102183.09;5034128;28;9629;-77
2021/12/23 04:43:48;;;;;;;;;5.50;5.50;;;;;-5.64;58.79;102190.66;5033606;28;8975;-77
2021/12/23 04:46:44;;;;;;;;;10.25;10.25;;;;;-5.64;59.22;102188.78;5034374;28;8834;-78
2021/12/23 04:49:39;;;;;;;;;6.00;6.00;;;;;-5.69;57.87;102185.81;5028686;28;9594;-77
2021/12/23 04:52:35;;;;;;;;;8.50;8.00;;;;;-6.13;58.50;102199.31;5045506;28;8860;-77
2021/12/23 04:55:31;;;;;;;;;12.75;9.75;;;;;-5.90;59.08;102205.44;5034107;28;8940;-77
2021/12/23 04:58:27;;;;;;;;;15.50;8.00;;;;;-5.85;59.03;102204.03;5047294;28;9603;-77
2021/12/23 05:01:28;;;;;;;;;7.00;7.00;;;;;-5.79;59.35;102206.81;5035658;28;8921;-77
2021/12/23 05:04:24;;;;;;;;;5.00;5.00;;;;;-5.63;58.78;102203.94;5045651;28;8969;-77
2021/12/23 05:07:20;;;;;;;;;6.25;6.25;;;;;-5.63;58.62;102212.00;5035908;28;9678;-77
2021/12/23 05:10:16;;;;;;;;;20.50;20.25;;;;;-5.56;58.66;102209.41;5021925;28;8968;-77
2021/12/23 05:13:13;;;;;;;;;27.25;27.25;;;;;-5.62;58.54;102211.00;5035256;28;8865;-77
2021/12/23 05:16:08;;;;;;;;;24.25;15.50;;;;;-5.49;58.36;102217.59;5034878;28;8845;-78
2021/12/23 05:19:04;;;;;;;;;6.75;6.75;;;;;-5.58;58.71;102216.84;5022194;28;8980;-78
2021/12/23 05:22:00;;;;;;;;;11.00;8.50;;;;;-5.49;57.75;102217.59;5022164;28;8845;-76
2021/12/23 05:24:56;;;;;;;;;6.25;6.25;;;;;-5.47;57.13;102226.31;5033588;28;8858;-75
2021/12/23 05:27:55;;;;;;;;;6.50;6.50;;;;;-5.41;58.04;102225.56;5013671;28;8836;-75
2021/12/23 05:30:50;;;;;;;;;9.25;8.50;;;;;-5.37;61.49;102222.31;5014006;28;9601;-78
2021/12/23 05:33:46;;;;;;;;;44.25;29.25;;;;;-5.32;58.74;102236.06;5015163;28;8832;-78
2021/12/23 05:36:42;;;;;;;;;20.25;14.25;;;;;-5.14;59.42;102235.66;5014526;28;8849;-78
2021/12/23 05:39:37;;;;;;;;;4.50;4.00;;;;;-5.25;59.29;102240.72;4993714;28;8868;-74
2021/12/23 05:42:33;;;;;;;;;16.50;13.00;;;;;-5.30;57.88;102238.56;5013842;28;8926;-74
2021/12/23 05:45:29;;;;;;;;;6.00;6.00;;;;;-5.27;57.49;102243.59;5013849;28;8847;-75
2021/12/23 05:48:24;;;;;;;;;15.25;10.00;;;;;-5.45;57.22;102249.38;5014649;28;8954;-74
2021/12/23 05:51:20;;;;;;;;;24.50;21.75;;;;;-5.56;57.28;102249.00;5013638;28;8848;-75
2021/12/23 05:54:15;;;;;;;;;6.25;6.25;;;;;-5.59;57.45;102252.94;5014472;28;8844;-75
2021/12/23 05:57:11;;;;;;;;;3.50;3.50;;;;;-5.72;58.87;102261.66;5014574;28;8844;-77
2021/12/23 06:00:12;;;;;;;;;15.00;13.00;;;;;-5.69;60.09;102252.34;5014398;28;9092;-77
2021/12/23 06:03:08;;;;;;;;;9.00;9.00;;;;;-5.68;58.98;102246.75;5015279;28;9589;-77
2021/12/23 06:06:04;;;;;;;;;9.25;8.00;;;;;-5.58;58.68;102253.75;5013972;28;8937;-76
2021/12/23 06:08:59;;;;;;;;;14.00;13.00;;;;;-5.67;59.69;102248.47;4998674;28;8836;-74
2021/12/23 06:11:55;;;;;;;;;12.00;12.00;;;;;-5.40;58.46;102255.03;4989624;28;8858;-75
2021/12/23 06:14:51;;;;;;;;;12.00;11.75;;;;;-5.24;58.85;102258.56;4987179;28;8840;-75
2021/12/23 06:17:46;;;;;;;;;22.75;18.50;;;;;-5.32;58.13;102260.34;5014848;28;8828;-76
2021/12/23 06:20:42;;;;;;;;;8.00;8.00;;;;;-5.20;57.70;102268.81;5011923;28;8870;-74
2021/12/23 06:23:38;;;;;;;;;14.00;14.00;;;;;-5.44;57.05;102269.09;5012792;28;8855;-74
2021/12/23 06:26:33;;;;;;;;;9.00;9.00;;;;;-5.43;57.54;102268.09;5024165;28;8850;-74
2021/12/23 06:29:29;;;;;;;;;13.50;13.00;;;;;-5.18;57.18;102258.66;5032130;28;8841;-73
2021/12/23 06:32:25;;;;;;;;;9.00;9.00;;;;;-5.53;56.86;102292.59;5032583;28;8822;-74
2021/12/23 06:35:24;;;;;;;;;9.50;9.50;;;;;-5.46;56.79;102282.75;5032595;28;8881;-73
2021/12/23 06:38:20;;;;;;;;;4.00;3.00;;;;;-5.46;57.08;102290.00;5032011;28;8936;-74
2021/12/23 06:41:17;;;;;;;;;9.50;9.50;;;;;-5.53;57.37;102299.84;5031838;28;8854;-73
2021/12/23 06:44:13;;;;;;;;;2.50;2.50;;;;;-5.71;57.82;102300.22;5032110;28;8834;-73
2021/12/23 06:47:09;;;;;;;;;6.50;6.50;;;;;-5.78;58.65;102312.75;5032401;28;9689;-74
2021/12/23 06:50:07;;;;;;;;;6.00;5.50;;;;;-5.75;59.20;102307.84;5031906;28;9578;-74
2021/12/23 06:53:02;;;;;;;;;9.00;9.00;;;;;-5.71;60.46;102302.91;5018633;28;8841;-74
2021/12/23 06:56:00;;;;;;;;;13.25;13.25;;;;;-5.52;61.07;102304.22;5032287;28;9005;-73
2021/12/23 06:58:56;;;;;;;;;14.00;14.00;;;;;-5.32;61.37;102305.34;5032035;28;8834;-73
2021/12/23 07:01:51;;;;;;;;;14.50;13.50;;;;;-5.39;61.40;102310.66;5031689;28;8854;-74
2021/12/23 07:04:47;;;;;;;;;9.00;8.50;;;;;-5.24;60.81;102296.31;5032261;28;8862;-73
2021/12/23 07:07:56;;;;;;;;;6.75;6.75;;;;;-5.25;59.84;102305.44;5033639;28;9607;-73
2021/12/23 07:10:52;;;;;;;;;4.00;4.00;;;;;-5.27;58.77;102294.03;5028033;28;9052;-74
2021/12/23 07:13:48;;;;;;;;;6.00;6.00;;;;;-5.23;59.09;102304.22;5031136;28;9017;-73
2021/12/23 07:16:44;;;;;;;;;7.50;7.50;;;;;-5.32;58.55;102311.59;5019490;28;8867;-73
2021/12/23 07:19:39;;;;;;;;;6.25;6.25;;;;;-5.10;57.07;102308.97;5031028;28;8912;-72
2021/12/23 07:22:35;;;;;;;;;6.75;6.75;;;;;-5.34;57.52;102310.09;5031308;28;8842;-72
2021/12/23 07:25:31;;;;;;;;;17.25;14.00;;;;;-5.01;56.39;102307.84;5011912;28;8894;-73
2021/12/23 07:28:26;;;;;;;;;10.75;10.75;;;;;-5.19;56.01;102312.81;5014239;28;9034;-72
2021/12/23 07:31:22;;;;;;;;;6.75;6.75;;;;;-5.40;56.97;102330.56;5035716;28;8838;-72
2021/12/23 07:34:18;;;;;;;;;6.00;4.50;;;;;-5.39;56.79;102326.84;5035632;28;8865;-73
2021/12/23 07:37:13;;;;;;;;;7.50;7.50;;;;;-5.67;56.76;102326.63;5046831;28;8829;-74
2021/12/23 07:40:13;;;;;;;;;13.00;13.00;;;;;-5.66;56.75;102332.88;5036826;28;8838;-75
2021/12/23 07:43:57;;;;;;;;;9.00;9.00;;;;;-5.73;56.22;102334.63;5036229;28;8858;-75
2021/12/23 07:46:30;;;;;;;;;12.50;12.50;;;;;-5.80;56.66;102333.66;5035238;28;8904;-75
2021/12/23 07:49:27;;;;;;;;;9.75;9.00;;;;;-5.33;56.65;102331.50;5021005;28;8938;-76
2021/12/23 07:52:23;;;;;;;;;9.25;9.25;;;;;-5.46;54.29;102333.16;5022282;28;8862;-76
2021/12/23 07:55:20;;;;;;;;;7.00;7.00;;;;;-5.46;54.32;102347.47;5046813;28;9637;-76
2021/12/23 07:58:16;;;;;;;;;6.00;6.00;;;;;-4.99;52.83;102342.72;5023418;28;8837;-78
2021/12/23 08:01:12;;;;;;;;;12.25;10.00;;;;;-4.65;52.65;102344.81;5035998;28;8830;-75
2021/12/23 08:04:07;;;;;;;;;8.00;7.75;;;;;-4.51;52.60;102341.25;5034913;28;8877;-76
2021/12/23 08:07:03;;;;;;;;;28.25;23.50;;;;;-4.66;53.00;102340.47;5022758;28;8854;-75
2021/12/23 08:09:59;;;;;;;;;11.50;10.50;;;;;-4.28;52.86;102341.09;5034860;28;8947;-75
2021/12/23 08:13:04;;;;;;;;;10.50;10.50;;;;;-4.08;51.53;102352.91;5024380;28;8952;-75
2021/12/23 08:16:01;;;;;;;;;12.25;10.00;;;;;-4.48;51.99;102347.09;5035015;28;8842;-76
2021/12/23 08:18:56;;;;;;;;;14.00;12.75;;;;;-4.12;51.22;102348.09;5020739;28;8838;-76
2021/12/23 08:21:52;;;;;;;;;18.50;17.50;;;;;-4.27;51.34;102340.88;5024398;28;8815;-76
2021/12/23 08:24:48;;;;;;;;;30.50;21.75;;;;;-3.83;51.53;102338.97;5029685;28;8881;-77
2021/12/23 08:27:44;;;;;;;;;25.50;22.00;;;;;-3.40;50.13;102331.63;5034849;28;8905;-76
2021/12/23 08:30:40;;;;;;;;;19.00;18.25;;;;;-3.16;49.96;102339.25;5021668;28;8826;-77
2021/12/23 08:33:36;;;;;;;;;24.00;24.00;;;;;-3.44;49.75;102338.47;5035049;28;8838;-77
2021/12/23 08:36:32;;;;;;;;;19.00;19.00;;;;;-3.22;49.29;102341.91;5034723;28;8837;-76
2021/12/23 08:39:27;;;;;;;;;17.67;17.00;;;;;-3.76;49.32;102338.00;5020026;28;8846;-77
2021/12/23 08:42:24;;;;;;;;;21.00;21.00;;;;;-3.69;49.93;102346.16;5034907;28;8842;-75
2021/12/23 08:45:20;;;;;;;;;21.25;21.25;;;;;-3.99;49.42;102345.50;5036277;28;8838;-76
2021/12/23 08:48:15;;;;;;;;;26.50;26.50;;;;;-4.00;50.73;102343.84;5033715;28;8992;-76
2021/12/23 08:51:11;;;;;;;;;44.75;40.75;;;;;-4.08;51.42;102333.16;5034323;28;8826;-77
2021/12/23 08:54:07;;;;;;;;;32.50;30.00;;;;;-4.25;51.58;102340.69;5033644;28;8862;-76
2021/12/23 08:57:04;;;;;;;;;29.00;26.00;;;;;-5.19;51.88;102353.25;5034286;28;8869;-76
2021/12/23 09:00:02;;;;;;;;;14.00;13.50;;;;;-5.20;52.09;102347.03;5033958;28;8944;-76
2021/12/23 09:02:58;;;;;;;;;19.50;19.50;;;;;-4.71;51.01;102345.59;5045758;28;8842;-76
2021/12/23 09:05:54;;;;;;;;;23.00;21.25;;;;;-4.52;50.51;102334.19;5034005;28;8858;-76
2021/12/23 09:08:49;;;;;;;;;20.00;20.00;;;;;-4.80;50.46;102337.59;5020531;28;8864;-77
2021/12/23 09:11:46;;;;;;;;;17.50;17.50;;;;;-4.72;51.78;102335.81;5021217;28;8830;-76
2021/12/23 09:14:14;;;;;;;;;29.00;25.25;;;;;-4.15;52.40;102332.25;5034452;28;8842;-75
2021/12/23 09:17:10;;;;;;;;;20.00;20.00;;;;;-3.87;49.46;102332.31;5020424;28;8834;-75
2021/12/23 09:20:09;;;;;;;;;15.50;15.50;;;;;-3.72;47.56;102342.00;5020482;28;8846;-75
2021/12/23 09:23:07;;;;;;;;;13.50;11.00;;;;;-4.73;46.99;102339.53;5033954;28;8850;-74
2021/12/23 09:26:09;;;;;;;;;13.00;13.00;;;;;-4.25;47.99;102333.41;5045456;28;8838;-75
2021/12/23 09:29:12;;;;;;;;;22.50;17.50;;;;;-4.21;47.64;102337.41;5019050;28;8831;-75
2021/12/23 09:35:24;;;;;;;;;19.00;16.25;;;;;-3.81;45.75;102337.78;5033263;28;8849;-77
2021/12/23 09:38:27;;;;;;;;;9.75;7.50;;;;;-3.85;44.75;102343.75;5033128;28;8834;-75
2021/12/23 09:41:23;;;;;;;;;12.00;12.00;;;;;-4.02;44.55;102337.78;5022584;28;8969;-76
2021/12/23 09:44:19;;;;;;;;;12.25;12.25;;;;;-4.31;45.73;102341.44;5019582;28;8842;-75
2021/12/23 09:47:16;;;;;;;;;11.00;11.00;;;;;-4.22;45.68;102330.34;5033021;28;8853;-75
2021/12/23 09:50:14;;;;;;;;;13.00;13.00;;;;;-4.08;45.18;102330.44;5033102;28;8830;-75
2021/12/23 09:53:14;;;;;;;;;13.50;13.00;;;;;-3.75;44.72;102334.28;5021434;28;8850;-75
2021/12/23 09:56:10;;;;;;;;;9.50;9.50;;;;;-4.47;44.87;102324.47;5031250;28;8901;-75
2021/12/23 09:59:07;;;;;;;;;15.00;13.50;;;;;-4.77;45.42;102329.09;5044037;28;8885;-75
2021/12/23 10:02:04;;;;;;;;;7.50;7.50;;;;;-4.79;46.10;102330.31;5033150;28;9595;-75
2021/12/23 10:04:59;;;;;;;;;6.75;6.00;;;;;-4.66;46.47;102329.66;5032528;28;8936;-74
2021/12/23 10:07:55;;;;;;;;;14.00;14.00;;;;;-4.53;46.10;102332.47;5019063;28;8870;-76
2021/12/23 10:10:57;;;;;;;;;13.00;9.50;;;;;-4.63;45.59;102330.09;5018803;28;8864;-74
2021/12/23 10:39:04;;;;;;;;;12.75;12.75;;;;;-4.14;47.51;102315.88;5032279;28;8826;-74
2021/12/23 10:42:11;;;;;;;;;10.00;10.00;;;;;-3.60;45.83;102312.56;5031249;28;9579;-74
2021/12/23 10:45:11;;;;;;;;;9.75;9.25;;;;;-3.58;45.17;102310.50;5018523;28;8834;-75
2021/12/23 10:48:10;;;;;;;;;10.00;10.00;;;;;-3.45;45.71;102301.59;5032213;28;8873;-73
2021/12/23 10:51:08;;;;;;;;;21.75;16.25;;;;;-3.72;45.86;102300.59;5020131;28;8834;-74
2021/12/23 10:54:22;;;;;;;;;62.00;46.25;;;;;-3.45;46.54;102298.91;5033475;28;8868;-74
2021/12/23 11:00:49;;;;;;;;;11.00;11.00;;;;;-3.51;46.04;102292.44;5032190;28;8931;-74
2021/12/23 11:03:51;;;;;;;;;21.25;21.25;;;;;-3.42;46.03;102293.94;5043763;28;9034;-74
2021/12/23 11:06:49;;;;;;;;;25.50;23.00;;;;;-3.81;46.50;102286.41;5018792;28;8845;-74
2021/12/23 11:10:35;;;;;;;;;21.00;15.25;;;;;-3.60;47.06;102296.34;5043846;28;8846;-74
2021/12/23 11:39:30;;;;;;;;;15.50;14.50;;;;;-4.40;47.30;102292.13;5031821;28;8853;-73
2021/12/23 11:42:36;;;;;;;;;23.50;23.00;;;;;-4.51;47.04;102289.94;5031624;28;8842;-73
2021/12/23 11:45:32;;;;;;;;;11.00;11.00;;;;;-4.44;47.60;102290.84;5031840;28;8888;-73
2021/12/23 11:48:28;;;;;;;;;12.00;10.00;;;;;-4.32;47.88;102297.41;5018644;28;8862;-74
2021/12/23 11:51:51;;;;;;;;;9.25;9.25;;;;;-4.34;47.45;102288.66;5018700;28;9636;-74
2021/12/23 11:54:47;;;;;;;;;25.25;21.75;;;;;-4.74;49.07;102287.41;5018516;28;8857;-74
2021/12/23 11:57:43;;;;;;;;;36.25;34.00;;;;;-5.50;52.85;102288.72;5033304;28;8993;-75
2021/12/23 12:00:43;;;;;;;;;30.75;28.00;;;;;-5.60;53.45;102297.06;5018551;28;8822;-74
2021/12/23 12:03:51;;;;;;;;;25.25;20.25;;;;;-5.90;54.15;102298.91;5031465;28;9012;-74
2021/12/23 12:06:50;;;;;;;;;14.75;14.75;;;;;-6.19;55.00;102292.44;5018628;28;9630;-74
2021/12/23 12:10:02;;;;;;;;;15.00;15.00;;;;;-6.11;55.25;102288.84;5018230;28;8834;-74
2021/12/23 12:13:09;;;;;;;;;18.75;15.75;;;;;-5.98;55.64;102290.91;5031759;28;8869;-75
2021/12/23 12:16:27;;;;;;;;;4.00;4.00;;;;;-6.09;56.68;102297.56;5035196;28;8870;-75
2021/12/23 12:19:53;;;;;;;;;14.25;13.25;;;;;-6.23;57.28;102292.97;5036579;28;9559;-75
2021/12/23 12:23:20;;;;;;;;;10.50;10.50;;;;;-6.35;58.35;102297.13;5035936;28;8965;-74
2021/12/23 12:25:56;;;;;;;;;14.50;14.50;;;;;-6.17;58.87;102300.34;5017365;28;9689;-74
2021/12/23 12:28:30;;;;;;;;;13.25;10.25;;;;;-6.21;58.48;102299.00;5035865;28;8846;-75
2021/12/23 12:31:02;;;;;;;;;14.00;14.00;;;;;-5.99;57.96;102306.22;5013467;28;8893;-75
2021/12/23 12:33:43;;;;;;;;;17.50;17.50;;;;;-5.95;59.11;102296.78;5037118;28;8867;-75
2021/12/23 12:36:15;;;;;;;;;13.25;13.25;;;;;-6.13;57.57;102298.97;5051741;28;8956;-76
2021/12/23 12:39:10;;;;;;;;;9.00;9.00;;;;;-6.46;55.94;102309.13;5050100;28;8874;-77
2021/12/23 12:42:10;;;;;;;;;7.50;7.50;;;;;-6.41;56.37;102308.63;5044187;28;8858;-75
2021/12/23 12:45:14;;;;;;;;;12.75;12.00;;;;;-6.40;55.31;102304.91;5050132;28;8844;-74
2021/12/23 12:48:10;;;;;;;;;17.50;15.25;;;;;-6.22;55.15;102305.41;5040878;28;8894;-75
2021/12/23 12:50:41;;;;;;;;;12.50;12.50;;;;;-6.15;54.27;102309.06;5055540;28;8929;-75
2021/12/23 12:53:15;;;;;;;;;13.00;12.00;;;;;-6.11;53.38;102307.69;5038314;28;8852;-75
2021/12/23 12:55:44;;;;;;;;;11.25;9.75;;;;;-6.28;52.63;102311.56;5055454;28;8855;-74
2021/12/23 12:58:12;;;;;;;;;12.00;9.25;;;;;-6.38;52.75;102316.31;5036784;28;8839;-74
2021/12/23 13:01:08;;;;;;;;;12.75;11.00;;;;;-6.42;52.54;102312.31;5048434;28;8838;-74
2021/12/23 13:03:52;;;;;;;;;11.75;11.50;;;;;-6.35;52.44;102322.19;5047613;28;8989;-73
2021/12/23 13:06:49;;;;;;;;;13.50;13.50;;;;;-6.20;51.74;102319.56;5038413;28;8869;-74
2021/12/23 13:09:58;;;;;;;;;10.25;9.25;;;;;-5.99;51.66;102327.78;5034057;28;8880;-74
2021/12/23 13:12:57;;;;;;;;;8.00;8.00;;;;;-6.04;51.14;102342.84;5050686;28;8874;-74
2021/12/23 13:15:28;;;;;;;;;7.00;7.00;;;;;-6.18;51.20;102333.69;5019313;28;8862;-74
2021/12/23 13:18:15;;;;;;;;;9.50;9.50;;;;;-6.28;50.83;102335.78;5044905;28;8952;-73
2021/12/23 13:20:49;;;;;;;;;10.00;10.00;;;;;-6.36;51.27;102333.13;5014071;28;8840;-74
2021/12/23 13:23:46;;;;;;;;;15.00;13.00;;;;;-6.21;51.74;102340.28;5014419;28;8986;-74
2021/12/23 13:26:42;;;;;;;;;9.50;9.50;;;;;-6.25;52.00;102330.88;5033732;28;8852;-74
2021/12/23 13:29:41;;;;;;;;;13.00;12.00;;;;;-6.25;52.04;102338.09;4663162;27;15219871;-74
2021/12/23 13:32:37;;;;;;;;;13.75;11.50;;;;;-6.17;51.93;102336.19;5179520;27;8815;-74
2021/12/23 13:35:18;;;;;;;;;8.00;8.00;;;;;-6.16;52.31;102337.03;5184828;27;8844;-74
2021/12/23 13:38:39;;;;;;;;;14.50;14.50;;;;;-6.21;52.28;102336.72;5157939;27;8843;-74
2021/12/23 13:41:48;;;;;;;;;17.50;14.25;;;;;-6.31;51.75;102333.44;5174981;27;8967;-75
2021/12/23 13:44:46;;;;;;;;;13.00;9.25;;;;;-6.34;52.57;102331.94;5172184;27;8837;-73
2021/12/23 13:47:42;;;;;;;;;24.25;21.25;;;;;-6.35;53.29;102337.53;5157660;27;8901;-74
2021/12/23 13:50:11;;;;;;;;;14.00;11.00;;;;;-6.29;53.26;102339.47;5154920;27;8864;-75
2021/12/23 13:53:07;;;;;;;;;4.50;4.50;;;;;-6.41;53.12;102341.75;5171615;27;8836;-74
2021/12/23 13:56:12;;;;;;;;;13.50;13.50;;;;;-6.21;53.01;102337.59;5158730;27;8824;-75
2021/12/23 13:59:07;;;;;;;;;12.00;12.00;;;;;-6.25;54.36;102341.63;5176782;27;9650;-74
2021/12/23 14:02:09;;;;;;;;;9.00;9.00;;;;;-6.23;53.50;102344.16;5157670;27;8813;-74
2021/12/23 14:05:07;;;;;;;;;6.25;5.00;;;;;-6.31;53.28;102341.50;5171497;27;8809;-73
2021/12/23 14:08:04;;;;;;;;;14.00;14.00;;;;;-6.37;53.85;102343.06;5182283;27;8823;-73
2021/12/23 14:11:01;;;;;;;;;17.25;16.00;;;;;-6.28;54.77;102351.94;5170735;27;8887;-76
2021/12/23 14:13:57;;;;;;;;;10.75;9.25;;;;;-6.19;53.97;102346.31;5157578;27;8941;-77
2021/12/23 14:16:25;;;;;;;;;13.75;12.50;;;;;-5.89;53.87;102349.91;5172861;27;8860;-76
2021/12/23 14:19:10;;;;;;;;;12.25;11.50;;;;;-6.13;53.36;102349.28;5172447;27;8936;-78
2021/12/23 14:25:19;;;;;;;;;8.50;8.50;;;;;-5.99;52.11;102360.13;5149360;27;8886;-77
2021/12/23 14:28:02;;;;;;;;;8.00;8.00;;;;;-5.94;52.06;102354.19;5171198;27;9581;-76
2021/12/23 14:30:36;;;;;;;;;6.25;6.25;;;;;-5.74;51.00;102359.91;5173489;27;8856;-79
2021/12/23 14:33:39;;;;;;;;;67.00;25.00;;;;;-5.69;51.15;102366.41;5176021;27;8950;-78
2021/12/23 14:36:38;;;;;;;;;8.00;8.00;;;;;-5.53;50.34;102364.56;5177955;27;8826;-77
2021/12/23 14:39:38;;;;;;;;;6.25;6.25;;;;;-5.78;50.20;102356.72;5186709;27;8819;-76
2021/12/23 14:42:13;;;;;;;;;9.75;9.75;;;;;-5.69;50.61;102360.16;5160962;27;9636;-76